createdAt,value
2023-03-20T00:02:01.558Z,15.55
2023-03-20T00:04:29.731Z,15.48
2023-03-20T00:06:56.811Z,15.55
2023-03-20T00:09:25.632Z,15.00
2023-03-20T00:11:55.616Z,15.38
2023-03-20T00:14:24.715Z,15.90
2023-03-20T00:16:52.327Z,15.63
2023-03-20T00:19:23.387Z,16.77
2023-03-20T00:21:51.609Z,15.02
2023-03-20T00:24:18.913Z,15.40
2023-03-20T00:26:47.399Z,16.17
2023-03-20T00:29:34.396Z,15.57
2023-03-20T00:32:01.552Z,15.90
2023-03-20T00:34:29.675Z,17.27
2023-03-20T00:36:58.043Z,16.63
2023-03-20T00:39:25.073Z,15.40
2023-03-20T00:41:53.802Z,17.00
2023-03-20T00:44:34.958Z,16.75
2023-03-20T00:47:12.025Z,16.50
2023-03-20T00:49:39.343Z,16.45
2023-03-20T00:52:06.386Z,17.42
2023-03-20T00:54:33.212Z,16.80
2023-03-20T00:57:04.187Z,17.20
2023-03-20T00:59:35.017Z,17.67
2023-03-20T01:02:02.844Z,17.50
2023-03-20T01:04:36.916Z,17.23
2023-03-20T01:07:04.864Z,16.10
2023-03-20T01:09:31.844Z,15.48
2023-03-20T01:12:00.341Z,16.08
2023-03-20T01:14:27.675Z,15.07
2023-03-20T01:16:54.576Z,14.77
2023-03-20T01:19:21.773Z,14.88
2023-03-20T01:21:48.679Z,15.27
2023-03-20T01:24:15.587Z,14.70
2023-03-20T01:26:44.139Z,13.93
2023-03-20T01:29:16.944Z,15.13
2023-03-20T01:31:44.040Z,14.43
2023-03-20T01:34:12.127Z,15.23
2023-03-20T01:36:40.401Z,14.50
2023-03-20T01:39:07.450Z,16.13
2023-03-20T01:41:34.653Z,14.25
2023-03-20T01:44:17.426Z,13.82
2023-03-20T01:46:44.997Z,14.68
2023-03-20T01:49:21.216Z,15.00
2023-03-20T01:51:49.339Z,13.45
2023-03-20T01:54:29.905Z,15.07
2023-03-20T01:57:02.568Z,13.73
2023-03-20T01:59:32.176Z,14.25
2023-03-20T02:01:59.558Z,13.82
2023-03-20T02:04:31.479Z,14.18
2023-03-20T02:06:58.388Z,14.52
2023-03-20T02:09:25.280Z,13.60
2023-03-20T02:11:53.915Z,12.75
2023-03-20T02:14:22.242Z,13.25
2023-03-20T02:16:49.302Z,13.25
2023-03-20T02:19:32.004Z,13.13
2023-03-20T02:22:19.060Z,12.90
2023-03-20T02:24:51.803Z,13.38
2023-03-20T02:27:24.726Z,12.80
2023-03-20T02:30:16.127Z,11.93
2023-03-20T02:33:01.500Z,12.25
2023-03-20T02:35:53.737Z,12.07
2023-03-20T02:38:20.774Z,12.23
2023-03-20T02:41:12.345Z,13.57
2023-03-20T02:43:50.684Z,13.20
2023-03-20T02:46:58.849Z,13.15
2023-03-20T02:49:25.728Z,14.00
2023-03-20T02:52:02.419Z,12.75
2023-03-20T02:54:59.916Z,13.20
2023-03-20T02:57:34.440Z,12.38
2023-03-20T03:00:12.329Z,13.23
2023-03-20T03:02:52.361Z,13.82
2023-03-20T03:05:27.686Z,15.85
2023-03-20T03:07:59.840Z,13.55
2023-03-20T03:10:36.982Z,13.48
2023-03-20T03:13:11.650Z,13.20
2023-03-20T03:15:42.953Z,14.00
2023-03-20T03:18:17.667Z,13.70
2023-03-20T03:20:47.099Z,14.07
2023-03-20T03:23:23.763Z,13.43
2023-03-20T03:25:51.789Z,13.88
2023-03-20T03:28:39.777Z,13.27
2023-03-20T03:31:12.284Z,13.15
2023-03-20T03:33:47.310Z,15.32
2023-03-20T03:36:25.520Z,13.57
2023-03-20T03:39:05.134Z,12.85
2023-03-20T03:41:40.763Z,13.30
2023-03-20T03:44:23.241Z,13.32
2023-03-20T03:47:28.121Z,13.13
2023-03-20T03:50:03.439Z,14.82
2023-03-20T03:52:32.883Z,13.18
2023-03-20T03:55:10.490Z,12.52
2023-03-20T03:57:49.420Z,12.95
2023-03-20T04:00:20.778Z,13.63
2023-03-20T04:02:51.253Z,12.45
2023-03-20T04:05:20.987Z,12.95
2023-03-20T04:07:52.796Z,13.07
2023-03-20T04:10:19.748Z,12.75
2023-03-20T04:12:47.153Z,11.98
2023-03-20T04:15:16.123Z,12.52
2023-03-20T04:17:43.347Z,12.23
2023-03-20T04:20:11.384Z,12.85
2023-03-20T04:22:38.581Z,13.45
2023-03-20T04:25:07.928Z,12.52
2023-03-20T04:27:34.950Z,12.50
2023-03-20T04:30:01.984Z,12.55
2023-03-20T04:32:28.795Z,12.20
2023-03-20T04:34:55.747Z,12.68
2023-03-20T04:37:22.757Z,11.95
2023-03-20T04:39:49.628Z,12.43
2023-03-20T04:42:16.540Z,10.98
2023-03-20T04:44:43.480Z,11.77
2023-03-20T04:47:10.425Z,11.60
2023-03-20T04:49:37.291Z,11.50
2023-03-20T04:52:04.712Z,11.90
2023-03-20T04:54:31.827Z,11.80
2023-03-20T04:56:58.699Z,11.73
2023-03-20T04:59:25.703Z,11.68
2023-03-20T05:01:52.538Z,11.25
2023-03-20T05:04:19.507Z,11.65
2023-03-20T05:06:49.295Z,10.90
2023-03-20T05:09:16.937Z,12.15
2023-03-20T05:11:43.836Z,10.65
2023-03-20T05:14:12.088Z,11.15
2023-03-20T05:16:39.470Z,11.38
2023-03-20T05:19:06.533Z,10.20
2023-03-20T05:21:33.458Z,11.20
2023-03-20T05:24:00.526Z,10.20
2023-03-20T05:26:27.382Z,10.77
2023-03-20T05:28:54.277Z,10.93
2023-03-20T05:31:21.543Z,10.70
2023-03-20T05:33:48.441Z,9.88
2023-03-20T05:36:15.559Z,10.10
2023-03-20T05:38:42.391Z,11.18
2023-03-20T05:41:09.245Z,10.10
2023-03-20T05:43:36.546Z,10.48
2023-03-20T05:46:03.454Z,10.13
2023-03-20T05:48:30.711Z,10.20
2023-03-20T05:50:58.003Z,10.30
2023-03-20T05:53:24.818Z,10.23
2023-03-20T05:55:51.656Z,10.23
2023-03-20T05:58:18.511Z,10.52
2023-03-20T06:00:45.462Z,9.43
2023-03-20T06:03:12.385Z,10.02
2023-03-20T06:05:39.381Z,9.15
2023-03-20T06:08:06.197Z,9.70
2023-03-20T06:10:33.161Z,9.75
2023-03-20T06:13:01.250Z,9.60
2023-03-20T06:15:28.683Z,9.93
2023-03-20T06:17:56.644Z,9.68
2023-03-20T06:20:24.390Z,9.77
2023-03-20T06:22:51.420Z,9.30
2023-03-20T06:25:19.321Z,9.38
2023-03-20T06:27:47.992Z,9.02
2023-03-20T06:30:16.241Z,8.88
2023-03-20T06:32:43.495Z,8.30
2023-03-20T06:35:11.252Z,10.85
2023-03-20T06:37:38.272Z,8.23
2023-03-20T06:40:06.709Z,10.10
2023-03-20T06:42:33.937Z,9.18
2023-03-20T06:45:00.880Z,9.70
2023-03-20T06:47:27.692Z,9.13
2023-03-20T06:49:54.603Z,9.70
2023-03-20T06:52:25.245Z,9.23
2023-03-20T06:54:52.209Z,9.25
2023-03-20T06:57:19.449Z,8.85
2023-03-20T06:59:46.298Z,9.27
2023-03-20T07:02:13.457Z,9.77
2023-03-20T07:04:41.237Z,8.93
2023-03-20T07:07:08.589Z,9.60
2023-03-20T07:09:35.955Z,9.18
2023-03-20T07:12:04.764Z,9.23
2023-03-20T07:14:31.773Z,9.23
2023-03-20T07:16:58.774Z,9.73
2023-03-20T07:19:26.400Z,8.48
2023-03-20T07:21:59.463Z,9.30
2023-03-20T07:24:26.558Z,9.63
2023-03-20T07:26:53.550Z,8.20
2023-03-20T07:29:20.518Z,8.80
2023-03-20T07:31:47.503Z,8.43
2023-03-20T07:34:14.534Z,7.95
2023-03-20T07:36:42.080Z,8.40
2023-03-20T07:39:09.626Z,8.20
2023-03-20T07:41:36.857Z,7.85
2023-03-20T07:44:03.796Z,6.90
2023-03-20T07:46:31.009Z,6.68
2023-03-20T07:48:58.367Z,8.00
2023-03-20T07:51:25.673Z,7.13
2023-03-20T07:53:52.604Z,6.20
2023-03-20T07:56:19.566Z,6.72
2023-03-20T07:58:46.451Z,6.85
2023-03-20T08:01:13.324Z,6.95
2023-03-20T08:03:40.554Z,6.47
2023-03-20T08:06:09.698Z,7.80
2023-03-20T08:08:36.904Z,6.25
2023-03-20T08:11:03.962Z,7.10
2023-03-20T08:13:31.002Z,6.07
2023-03-20T08:15:58.314Z,6.40
2023-03-20T08:18:25.336Z,6.55
2023-03-20T08:20:52.352Z,6.30
2023-03-20T08:23:20.900Z,6.03
2023-03-20T08:25:52.425Z,6.55
2023-03-20T08:28:19.368Z,6.68
2023-03-20T08:30:46.298Z,6.68
2023-03-20T08:33:14.580Z,6.93
2023-03-20T08:35:41.549Z,6.43
2023-03-20T08:38:14.185Z,5.57
2023-03-20T08:40:42.342Z,6.18
2023-03-20T08:43:09.704Z,5.57
2023-03-20T08:45:36.910Z,7.38
2023-03-20T08:48:04.112Z,5.00
2023-03-20T08:50:32.304Z,5.85
2023-03-20T08:52:59.249Z,6.25
2023-03-20T08:55:26.958Z,4.53
2023-03-20T08:57:54.700Z,5.75
2023-03-20T09:00:22.622Z,5.13
2023-03-20T09:02:50.954Z,5.00
2023-03-20T09:05:18.129Z,4.45
2023-03-20T09:07:45.137Z,5.47
2023-03-20T09:10:12.762Z,5.30
2023-03-20T09:12:40.032Z,4.85
2023-03-20T09:15:08.193Z,4.50
2023-03-20T09:17:35.151Z,4.80
2023-03-20T09:20:02.126Z,5.22
2023-03-20T09:22:29.099Z,4.38
2023-03-20T09:24:56.098Z,6.78
2023-03-20T09:27:22.940Z,4.72
2023-03-20T09:29:49.862Z,4.65
2023-03-20T09:32:16.937Z,4.47
2023-03-20T09:34:43.865Z,4.18
2023-03-20T09:37:11.069Z,4.90
2023-03-20T09:39:37.964Z,4.07
2023-03-20T09:42:30.950Z,4.30
2023-03-20T09:45:13.199Z,4.15
2023-03-20T09:47:50.948Z,4.43
2023-03-20T09:50:43.074Z,3.97
2023-03-20T09:53:31.367Z,4.78
2023-03-20T09:55:59.346Z,4.20
2023-03-20T09:58:37.760Z,4.05
2023-03-20T10:01:06.897Z,6.63
2023-03-20T10:03:42.541Z,4.65
2023-03-20T10:06:14.984Z,4.47
2023-03-20T10:08:43.097Z,3.95
2023-03-20T10:11:19.052Z,4.22
2023-03-20T10:13:49.277Z,4.80
2023-03-20T10:16:32.283Z,4.28
2023-03-20T10:19:07.971Z,4.07
2023-03-20T10:21:41.604Z,4.40
2023-03-20T10:24:27.432Z,4.63
2023-03-20T10:29:36.705Z,4.75
2023-03-20T10:32:08.784Z,4.30
2023-03-20T10:35:11.526Z,4.38
2023-03-20T10:37:47.882Z,4.75
2023-03-20T10:40:36.636Z,4.32
2023-03-20T10:43:14.745Z,4.53
2023-03-20T10:45:46.871Z,4.85
2023-03-20T10:48:22.929Z,4.72
2023-03-20T10:50:59.885Z,4.38
2023-03-20T10:53:58.259Z,4.70
2023-03-20T10:56:39.288Z,5.78
2023-03-20T10:59:20.123Z,4.57
2023-03-20T11:01:47.061Z,4.85
2023-03-20T11:04:13.915Z,5.47
2023-03-20T11:06:57.973Z,4.95
2023-03-20T11:09:26.957Z,4.75
2023-03-20T11:11:57.861Z,4.85
2023-03-20T11:14:27.231Z,4.97
2023-03-20T11:16:56.547Z,4.65
2023-03-20T11:19:24.243Z,4.63
2023-03-20T11:21:57.203Z,4.70
2023-03-20T11:24:37.903Z,5.05
2023-03-20T11:27:14.552Z,4.75
2023-03-20T11:29:45.615Z,4.80
2023-03-20T11:32:28.769Z,5.05
2023-03-20T11:34:59.384Z,5.35
2023-03-20T11:37:34.223Z,4.40
2023-03-20T11:40:25.707Z,4.70
2023-03-20T11:42:55.534Z,4.10
2023-03-20T11:45:23.576Z,4.65
2023-03-20T11:47:57.091Z,4.32
2023-03-20T11:50:35.422Z,4.75
2023-03-20T11:53:21.085Z,4.65
2023-03-20T11:56:03.323Z,4.72
2023-03-20T11:58:30.720Z,4.47
2023-03-20T12:00:58.207Z,4.38
2023-03-20T12:03:52.181Z,4.45
2023-03-20T12:06:28.082Z,4.13
2023-03-20T12:09:04.839Z,4.43
2023-03-20T12:11:48.902Z,4.35
2023-03-20T12:14:40.097Z,3.85
2023-03-20T12:17:15.978Z,4.82
2023-03-20T12:19:45.378Z,5.05
2023-03-20T12:22:21.686Z,5.93
2023-03-20T12:25:24.217Z,4.72
2023-03-20T12:28:37.370Z,4.22
2023-03-20T12:31:04.736Z,4.25
2023-03-20T12:33:48.459Z,4.68
2023-03-20T12:36:18.719Z,4.38
2023-03-20T12:38:46.354Z,4.28
2023-03-20T12:41:30.966Z,4.90
2023-03-20T12:44:21.376Z,4.68
2023-03-20T12:46:51.226Z,4.43
2023-03-20T12:49:36.336Z,4.25
2023-03-20T12:52:09.050Z,4.85
2023-03-20T12:55:01.580Z,4.32
2023-03-20T12:57:50.033Z,4.20
2023-03-20T13:00:25.015Z,4.45
2023-03-20T13:03:07.019Z,5.07
2023-03-20T13:05:48.448Z,4.45
2023-03-20T13:08:22.378Z,4.95
2023-03-20T13:11:11.059Z,5.15
2023-03-20T13:13:54.575Z,6.47
2023-03-20T13:16:41.684Z,5.00
2023-03-20T13:19:14.688Z,5.50
2023-03-20T13:22:01.884Z,5.35
2023-03-20T13:24:38.306Z,4.95
2023-03-20T13:27:23.833Z,5.20
2023-03-20T13:29:56.669Z,6.05
2023-03-20T13:32:56.177Z,5.32
2023-03-20T13:35:41.049Z,5.53
2023-03-20T13:38:14.870Z,5.13
2023-03-20T13:40:44.235Z,5.22
2023-03-20T13:43:54.653Z,5.20
2023-03-20T13:46:29.162Z,4.93
2023-03-20T13:49:02.606Z,5.45
2023-03-20T13:51:57.565Z,5.28
2023-03-20T13:55:01.876Z,5.75
2023-03-20T13:57:40.890Z,5.63
2023-03-20T14:00:34.088Z,5.05
2023-03-20T14:03:12.304Z,5.15
2023-03-20T14:05:41.620Z,5.55
2023-03-20T14:08:27.290Z,5.13
2023-03-20T14:11:08.909Z,5.10
2023-03-20T14:13:36.548Z,6.07
2023-03-20T14:16:08.516Z,5.45
2023-03-20T14:18:36.577Z,5.57
2023-03-20T14:21:11.773Z,5.88
2023-03-20T14:23:42.975Z,5.63
2023-03-20T14:26:36.085Z,7.22
2023-03-20T14:29:11.987Z,5.72
2023-03-20T14:31:42.423Z,5.75
2023-03-20T14:34:12.355Z,6.68
2023-03-20T14:37:02.162Z,6.28
2023-03-20T14:39:54.013Z,6.10
2023-03-20T14:42:31.816Z,6.75
2023-03-20T14:45:13.894Z,6.95
2023-03-20T14:48:07.121Z,6.88
2023-03-20T14:50:33.956Z,6.10
2023-03-20T14:53:18.673Z,7.93
2023-03-20T14:55:57.663Z,7.10
2023-03-20T14:58:49.144Z,8.20
2023-03-20T15:01:22.197Z,6.65
2023-03-20T15:04:07.002Z,7.28
2023-03-20T15:06:35.691Z,7.90
2023-03-20T15:09:08.157Z,7.43
2023-03-20T15:11:35.692Z,8.27
2023-03-20T15:14:06.326Z,7.93
2023-03-20T15:16:37.036Z,8.25
2023-03-20T15:19:19.197Z,8.50
2023-03-20T15:21:48.248Z,8.80
2023-03-20T15:24:24.232Z,8.40
2023-03-20T15:27:02.023Z,7.72
2023-03-20T15:29:31.640Z,7.90
2023-03-20T15:32:13.375Z,7.32
2023-03-20T15:34:42.265Z,7.63
2023-03-20T15:37:17.286Z,7.75
2023-03-20T15:39:51.137Z,7.18
2023-03-20T15:42:22.046Z,7.55
2023-03-20T15:44:52.205Z,7.30
2023-03-20T15:47:24.547Z,7.47
2023-03-20T15:49:56.956Z,7.30
2023-03-20T15:52:34.195Z,7.32
2023-03-20T15:55:11.736Z,7.68
2023-03-20T15:57:41.264Z,7.25
2023-03-20T16:00:15.539Z,7.30
2023-03-20T16:02:44.709Z,7.03
2023-03-20T16:05:15.717Z,7.38
2023-03-20T16:07:43.136Z,6.60
2023-03-20T16:10:36.711Z,7.30
2023-03-20T16:13:06.642Z,7.13
2023-03-20T16:15:34.189Z,7.50
2023-03-20T16:18:04.679Z,7.55
2023-03-20T16:20:38.286Z,7.03
2023-03-20T16:23:08.257Z,6.68
2023-03-20T16:25:37.381Z,7.15
2023-03-20T16:28:07.216Z,7.20
2023-03-20T16:30:36.097Z,6.28
2023-03-20T16:33:12.384Z,6.43
2023-03-20T16:38:29.369Z,6.78
2023-03-20T16:41:13.199Z,6.88
2023-03-20T16:43:40.690Z,7.78
2023-03-20T16:46:08.232Z,8.52
2023-03-20T16:48:39.268Z,7.57
2023-03-20T16:51:22.838Z,7.22
2023-03-20T16:53:52.246Z,7.78
2023-03-20T16:56:38.503Z,8.30
2023-03-20T16:59:10.209Z,7.18
2023-03-20T17:01:41.932Z,7.45
2023-03-20T17:04:21.182Z,8.05
2023-03-20T17:06:52.513Z,8.50
2023-03-20T17:09:24.761Z,7.65
2023-03-20T17:12:11.869Z,7.97
2023-03-20T17:14:40.800Z,7.80
2023-03-20T17:17:16.927Z,8.80
2023-03-20T17:19:45.460Z,9.27
2023-03-20T17:22:18.664Z,8.05
2023-03-20T17:24:45.771Z,8.70
2023-03-20T17:27:13.647Z,9.15
2023-03-20T17:29:41.676Z,9.15
2023-03-20T17:32:13.434Z,8.60
2023-03-20T17:34:40.898Z,8.45
2023-03-20T17:37:13.582Z,9.25
2023-03-20T17:39:40.986Z,8.85
2023-03-20T17:42:18.904Z,9.85
2023-03-20T17:44:47.146Z,9.25
2023-03-20T17:47:22.520Z,9.23
2023-03-20T17:49:52.002Z,9.02
2023-03-20T17:52:21.174Z,10.93
2023-03-20T17:54:48.134Z,8.88
2023-03-20T17:57:22.909Z,8.55
2023-03-20T17:59:50.240Z,9.05
2023-03-20T18:02:20.982Z,8.38
2023-03-20T18:04:48.838Z,9.32
2023-03-20T18:07:17.415Z,9.88
2023-03-20T18:09:44.587Z,8.15
2023-03-20T18:12:15.616Z,7.88
2023-03-20T18:14:43.750Z,7.70
2023-03-20T18:17:15.402Z,6.93
2023-03-20T18:19:43.328Z,6.13
2023-03-20T18:22:10.669Z,6.35
2023-03-20T18:24:40.054Z,7.38
2023-03-20T18:27:07.549Z,5.80
2023-03-20T18:29:34.491Z,5.55
2023-03-20T18:32:01.464Z,5.20
2023-03-20T18:34:28.398Z,5.68
2023-03-20T18:36:55.339Z,5.70
2023-03-20T18:39:24.723Z,6.30
2023-03-20T18:41:52.419Z,5.47
2023-03-20T18:44:19.370Z,4.85
2023-03-20T18:46:46.360Z,5.35
2023-03-20T18:49:18.244Z,5.88
2023-03-20T18:51:46.124Z,5.53
2023-03-20T18:54:13.746Z,5.25
2023-03-20T18:56:41.144Z,5.22
2023-03-20T18:59:12.415Z,5.88
2023-03-20T19:01:39.656Z,6.00
2023-03-20T19:04:06.764Z,5.60
2023-03-20T19:06:34.013Z,6.00
2023-03-20T19:09:05.003Z,6.32
2023-03-20T19:11:31.865Z,6.53
2023-03-20T19:13:58.821Z,5.70
2023-03-20T19:16:29.122Z,5.32
2023-03-20T19:18:59.048Z,6.70
2023-03-20T19:21:26.668Z,5.88
2023-03-20T19:24:04.974Z,5.30
2023-03-20T19:26:33.730Z,5.60
2023-03-20T19:29:02.863Z,5.55
2023-03-20T19:31:30.015Z,5.90
2023-03-20T19:33:57.076Z,6.38
2023-03-20T19:36:36.353Z,6.90
2023-03-20T19:39:05.864Z,6.07
2023-03-20T19:41:33.211Z,6.82
2023-03-20T19:44:01.557Z,7.05
2023-03-20T19:46:39.789Z,6.60
2023-03-20T19:49:19.548Z,6.28
2023-03-20T19:51:48.076Z,6.60
2023-03-20T19:54:15.128Z,6.93
2023-03-20T19:56:42.165Z,6.50
2023-03-20T19:59:09.183Z,6.72
2023-03-20T20:01:36.543Z,7.03
2023-03-20T20:04:04.187Z,6.88
2023-03-20T20:06:32.915Z,7.00
2023-03-20T20:09:01.509Z,6.93
2023-03-20T20:11:28.961Z,6.65
2023-03-20T20:14:14.473Z,7.47
2023-03-20T20:16:43.230Z,6.45
2023-03-20T20:19:10.922Z,7.28
2023-03-20T20:24:25.106Z,7.20
2023-03-20T20:26:56.817Z,6.80
2023-03-20T20:29:30.403Z,8.13
2023-03-20T20:31:59.042Z,7.85
2023-03-20T20:37:51.649Z,7.72
2023-03-20T20:40:00.359Z,7.28
2023-03-20T20:42:27.440Z,6.85
2023-03-20T20:44:54.309Z,6.70
2023-03-20T20:47:21.448Z,6.82
2023-03-20T20:49:48.766Z,6.65
2023-03-20T20:52:16.180Z,6.97
2023-03-20T20:54:43.187Z,6.20
2023-03-20T20:57:12.060Z,5.82
2023-03-20T20:59:40.420Z,7.00
2023-03-20T21:02:11.683Z,6.90
2023-03-20T21:04:42.700Z,6.80
2023-03-20T21:07:13.699Z,7.07
2023-03-20T21:09:41.109Z,7.65
2023-03-20T21:12:10.609Z,7.63
2023-03-20T21:14:38.150Z,8.25
2023-03-20T21:17:06.115Z,8.10
2023-03-20T21:19:36.080Z,8.43
2023-03-20T21:22:04.456Z,8.88
2023-03-20T21:24:34.510Z,8.82
2023-03-20T21:27:06.948Z,9.23
2023-03-20T21:29:34.532Z,8.55
2023-03-20T21:32:01.580Z,8.93
2023-03-20T21:34:31.861Z,8.98
2023-03-20T21:37:00.084Z,9.93
2023-03-20T21:39:30.510Z,10.18
2023-03-20T21:41:58.340Z,10.95
2023-03-20T21:45:08.895Z,10.77
2023-03-20T21:48:17.362Z,10.48
2023-03-20T22:04:54.792Z,13.35
2023-03-20T22:10:08.494Z,12.80
2023-03-20T22:13:12.417Z,14.45
2023-03-20T22:15:46.391Z,15.23
2023-03-20T22:18:42.400Z,14.82
2023-03-20T22:21:42.539Z,14.88
2023-03-20T22:29:45.253Z,15.23
2023-03-20T22:32:35.036Z,16.15
2023-03-20T22:35:27.589Z,15.15
2023-03-20T22:46:07.777Z,15.32
2023-03-20T22:48:40.390Z,15.27
2023-03-20T22:51:07.958Z,14.35
2023-03-20T22:53:35.054Z,15.30
2023-03-20T22:56:02.148Z,13.95
2023-03-20T22:58:29.063Z,13.52
2023-03-20T23:00:57.185Z,14.20
2023-03-20T23:03:42.196Z,14.25
2023-03-20T23:06:19.826Z,12.98
2023-03-20T23:08:52.340Z,13.80
2023-03-20T23:11:23.946Z,13.73
2023-03-20T23:13:51.653Z,14.23
2023-03-20T23:16:19.468Z,13.63
2023-03-20T23:18:46.472Z,14.98
2023-03-20T23:21:13.509Z,13.05
2023-03-20T23:23:40.567Z,13.40
2023-03-20T23:26:13.821Z,13.05
2023-03-20T23:28:42.658Z,12.43
2023-03-20T23:31:15.524Z,12.05
2023-03-20T23:33:45.085Z,12.25
2023-03-20T23:36:24.737Z,11.60
2023-03-20T23:38:58.967Z,11.77
2023-03-20T23:41:53.646Z,11.18
2023-03-20T23:44:12.968Z,10.80
2023-03-20T23:46:39.878Z,10.93
2023-03-20T23:49:06.962Z,10.23
2023-03-20T23:51:33.916Z,9.75
2023-03-20T23:54:00.989Z,10.20
2023-03-20T23:56:27.871Z,9.13
2023-03-20T23:59:01.136Z,10.02
